Time;durP1;ratioP1;P1;durP2;ratioP2;P2;SDS_P1;SDS_P2;PMS_P1;PMS_P2;Temp;Humidity;BMP_temperature;BMP_pressure;BME280_temperature;BME280_humidity;BME280_pressure;Samples;Min_cycle;Max_cycle;Signal;HPM_P1;HPM_P2
2022/07/01 00:00:01;;;;;;;6.05;1.52;;;14.90;99.90;;;;;;5075014;28;20106;-47
2022/07/01 00:02:26;;;;;;;8.90;1.50;;;14.80;99.90;;;;;;5075620;28;20040;-43
2022/07/01 00:04:53;;;;;;;6.90;1.50;;;15.00;99.90;;;;;;5073357;28;20135;-42
2022/07/01 00:07:22;;;;;;;4.68;1.30;;;16.70;99.90;;;;;;5073277;28;20047;-45
2022/07/01 00:09:47;;;;;;;6.55;1.50;;;14.90;99.90;;;;;;5073011;28;20499;-45
2022/07/01 00:12:13;;;;;;;4.07;1.30;;;14.90;99.90;;;;;;5074072;28;20081;-47
2022/07/01 00:14:42;;;;;;;5.10;1.60;;;15.30;99.90;;;;;;5074900;28;20048;-48
2022/07/01 00:17:10;;;;;;;4.22;1.48;;;15.00;99.90;;;;;;5077640;28;20048;-47
2022/07/01 00:19:36;;;;;;;9.05;1.80;;;15.20;99.90;;;;;;5078572;28;20086;-44
2022/07/01 00:22:01;;;;;;;6.25;1.55;;;15.50;99.90;;;;;;5076892;28;20241;-43
2022/07/01 00:24:27;;;;;;;5.88;1.60;;;15.00;99.90;;;;;;5077259;28;20435;-43
2022/07/01 00:26:54;;;;;;;8.45;1.80;;;14.90;99.90;;;;;;5076817;28;20063;-47
2022/07/01 00:29:20;;;;;;;8.43;1.50;;;14.90;99.90;;;;;;5077712;28;20097;-47
2022/07/01 00:31:45;;;;;;;6.22;1.50;;;15.90;99.90;;;;;;5076251;28;20444;-48
2022/07/01 00:34:11;;;;;;;4.35;1.50;;;15.70;99.90;;;;;;5074595;28;20048;-47
2022/07/01 00:36:37;;;;;;;6.00;1.55;;;16.00;99.90;;;;;;5077000;28;20085;-45
2022/07/01 00:39:02;;;;;;;6.63;1.45;;;17.20;99.90;;;;;;5078004;28;20052;-43
2022/07/01 00:41:28;;;;;;;7.35;1.40;;;14.80;99.90;;;;;;5076962;28;20032;-43
2022/07/01 00:43:54;;;;;;;3.75;1.05;;;15.00;99.90;;;;;;5075569;28;20036;-48
2022/07/01 00:46:20;;;;;;;5.95;1.25;;;15.00;99.90;;;;;;5074190;28;20044;-43
2022/07/01 00:48:46;;;;;;;3.35;1.05;;;14.70;99.90;;;;;;5077117;28;20655;-47
2022/07/01 00:51:14;;;;;;;5.07;1.20;;;15.00;99.90;;;;;;5079123;28;20146;-45
2022/07/01 00:53:40;;;;;;;5.82;1.10;;;15.20;99.90;;;;;;5077114;28;20054;-46
2022/07/01 00:56:06;;;;;;;4.10;1.13;;;15.50;99.90;;;;;;5077229;28;20032;-47
2022/07/01 00:58:32;;;;;;;5.15;1.70;;;15.80;99.90;;;;;;5077695;28;20065;-43
2022/07/01 01:00:58;;;;;;;2.65;1.05;;;15.00;99.90;;;;;;5076809;28;20036;-44
2022/07/01 01:03:25;;;;;;;3.28;0.95;;;16.60;99.90;;;;;;5078069;28;20345;-44
2022/07/01 01:05:54;;;;;;;4.05;1.10;;;14.80;99.90;;;;;;5077562;28;20115;-48
2022/07/01 01:08:22;;;;;;;5.63;1.27;;;16.30;99.90;;;;;;5079064;28;20043;-48
2022/07/01 01:10:48;;;;;;;4.75;1.48;;;15.10;99.90;;;;;;5076520;28;20109;-44
2022/07/01 01:13:14;;;;;;;4.43;1.42;;;14.90;99.90;;;;;;5076643;28;20036;-47
2022/07/01 01:15:40;;;;;;;5.95;1.85;;;15.30;99.90;;;;;;5077092;28;20498;-48
2022/07/01 01:18:06;;;;;;;7.30;2.67;;;15.00;99.90;;;;;;5076878;28;20109;-43
2022/07/01 01:20:36;;;;;;;4.68;1.63;;;14.90;99.90;;;;;;5076841;28;20144;-48
2022/07/01 01:23:07;;;;;;;4.60;1.50;;;14.90;99.90;;;;;;5075402;28;20043;-47
2022/07/01 01:25:34;;;;;;;2.03;1.40;;;14.80;99.90;;;;;;5073967;28;20710;-48
2022/07/01 01:28:01;;;;;;;2.78;1.38;;;14.80;99.90;;;;;;5075570;28;20496;-46
2022/07/01 01:30:26;;;;;;;2.58;1.17;;;17.00;99.90;;;;;;5076112;28;20082;-45
2022/07/01 01:32:52;;;;;;;3.30;1.25;;;14.80;99.90;;;;;;5075798;28;20127;-45
2022/07/01 01:35:19;;;;;;;2.33;1.10;;;16.10;99.90;;;;;;5075867;28;20047;-48
2022/07/01 01:37:45;;;;;;;2.58;0.85;;;14.90;99.90;;;;;;5075134;28;20048;-46
2022/07/01 01:40:13;;;;;;;3.28;1.15;;;14.90;99.90;;;;;;5075865;28;20036;-48
2022/07/01 01:42:39;;;;;;;2.13;1.10;;;14.70;99.90;;;;;;5074866;28;20036;-46
2022/07/01 01:45:06;;;;;;;5.97;1.10;;;14.80;99.90;;;;;;5076137;28;20526;-44
2022/07/01 01:47:33;;;;;;;2.65;1.00;;;14.70;99.90;;;;;;5074728;28;20089;-44
2022/07/01 01:49:59;;;;;;;2.92;1.25;;;14.70;99.90;;;;;;5074801;28;20083;-47
2022/07/01 01:52:24;;;;;;;2.08;1.10;;;15.20;99.90;;;;;;5075646;28;20512;-47
2022/07/01 01:54:50;;;;;;;2.45;1.10;;;14.70;99.90;;;;;;5063875;28;20070;-47
2022/07/01 01:57:18;;;;;;;4.40;1.40;;;14.60;99.90;;;;;;5076633;28;20074;-46
2022/07/01 01:59:44;;;;;;;2.42;1.10;;;14.60;99.90;;;;;;5075892;28;20536;-46
2022/07/01 02:02:09;;;;;;;4.07;1.50;;;16.00;99.90;;;;;;5075502;28;20040;-46
2022/07/01 02:04:35;;;;;;;3.58;1.30;;;14.60;99.90;;;;;;5074536;28;20028;-47
2022/07/01 02:07:01;;;;;;;2.45;1.15;;;14.50;99.90;;;;;;5075893;28;20595;-45
2022/07/01 02:09:28;;;;;;;4.07;1.50;;;14.60;99.90;;;;;;5076551;28;20131;-45
2022/07/01 02:11:57;;;;;;;3.53;1.48;;;16.70;99.90;;;;;;5075864;28;20040;-44
2022/07/01 02:14:24;;;;;;;4.05;1.70;;;14.40;99.90;;;;;;5076983;28;20040;-48
2022/07/01 02:16:50;;;;;;;4.45;1.70;;;15.50;99.90;;;;;;5076007;28;20040;-46
2022/07/01 02:19:16;;;;;;;3.85;1.85;;;14.50;99.90;;;;;;5076688;28;20050;-46
2022/07/01 02:21:43;;;;;;;3.25;1.70;;;14.40;99.90;;;;;;5077505;28;20079;-49
2022/07/01 02:24:09;;;;;;;5.40;1.90;;;14.50;99.90;;;;;;5075562;28;20085;-47
2022/07/01 02:26:35;;;;;;;5.43;2.10;;;14.90;99.90;;;;;;5074280;28;20036;-43
2022/07/01 02:29:04;;;;;;;5.90;2.50;;;14.50;99.90;;;;;;5073048;28;20050;-47
2022/07/01 02:31:29;;;;;;;4.65;2.38;;;16.70;99.90;;;;;;5075644;28;20044;-48
2022/07/01 02:33:55;;;;;;;4.45;2.38;;;13.60;99.90;;;;;;5074880;28;20059;-47
2022/07/01 02:36:21;;;;;;;4.07;2.08;;;15.50;99.90;;;;;;5073641;28;20447;-46
2022/07/01 02:38:47;;;;;;;4.07;2.30;;;14.70;99.90;;;;;;5074757;28;20062;-48
2022/07/01 02:41:12;;;;;;;5.13;2.20;;;14.30;99.90;;;;;;5074123;28;20076;-45
2022/07/01 02:43:38;;;;;;;3.80;2.28;;;14.10;99.90;;;;;;5074246;28;20683;-46
2022/07/01 02:46:04;;;;;;;7.07;2.67;;;15.40;99.90;;;;;;5073931;28;20044;-48
2022/07/01 02:48:29;;;;;;;7.65;2.80;;;14.90;99.90;;;;;;5073346;28;20059;-48
2022/07/01 02:50:59;;;;;;;5.68;2.42;;;15.40;99.90;;;;;;5075055;28;20093;-48
2022/07/01 02:53:24;;;;;;;5.32;2.70;;;14.20;99.90;;;;;;5075115;28;20123;-46
2022/07/01 02:55:51;;;;;;;4.82;2.75;;;14.40;99.90;;;;;;5072369;28;20480;-48
2022/07/01 02:58:17;;;;;;;5.47;2.78;;;15.20;99.90;;;;;;5073103;28;20047;-48
2022/07/01 03:00:43;;;;;;;6.35;3.05;;;14.40;99.90;;;;;;5072852;28;20478;-48
2022/07/01 03:03:09;;;;;;;7.10;2.85;;;14.20;99.90;;;;;;5073754;28;20036;-47
2022/07/01 03:05:38;;;;;;;5.70;2.90;;;14.50;99.90;;;;;;5073795;28;20699;-44
2022/07/01 03:08:04;;;;;;;6.40;3.30;;;14.10;99.90;;;;;;5074037;28;20070;-46
2022/07/01 03:10:29;;;;;;;5.07;2.90;;;14.10;99.90;;;;;;5075203;28;20544;-47
2022/07/01 03:12:59;;;;;;;5.88;3.17;;;14.40;99.90;;;;;;5075961;28;20047;-47
2022/07/01 03:15:25;;;;;;;6.05;3.55;;;14.40;99.90;;;;;;5075001;28;20047;-45
2022/07/01 03:17:50;;;;;;;7.80;3.20;;;14.30;99.90;;;;;;5073996;28;20036;-47
2022/07/01 03:20:17;;;;;;;6.47;3.55;;;14.20;99.90;;;;;;5073694;28;20036;-47
2022/07/01 03:22:45;;;;;;;5.03;2.90;;;14.00;99.90;;;;;;5072919;28;20070;-46
2022/07/01 03:25:11;;;;;;;6.32;3.53;;;14.00;99.90;;;;;;5073747;28;20040;-49
2022/07/01 03:27:37;;;;;;;6.20;3.22;;;14.10;99.90;;;;;;5074307;28;20040;-44
2022/07/01 03:30:05;;;;;;;5.55;3.40;;;14.10;99.90;;;;;;5073421;28;20031;-48
2022/07/01 03:32:31;;;;;;;9.25;3.92;;;14.00;99.90;;;;;;5075033;28;20259;-48
2022/07/01 03:34:57;;;;;;;8.02;3.58;;;15.90;99.90;;;;;;5074659;28;20040;-47
2022/07/01 03:37:23;;;;;;;9.05;3.92;;;15.20;99.90;;;;;;5076261;28;20044;-48
2022/07/01 03:39:49;;;;;;;7.10;4.38;;;16.30;99.90;;;;;;5076029;28;20071;-46
2022/07/01 03:42:19;;;;;;;10.02;3.70;;;14.10;99.90;;;;;;5071697;28;20865;-47
2022/07/01 03:44:44;;;;;;;7.95;3.67;;;13.90;99.90;;;;;;5074278;28;20047;-48
2022/07/01 03:47:10;;;;;;;6.40;3.50;;;14.20;99.90;;;;;;5075515;28;20036;-47
2022/07/01 03:49:38;;;;;;;17.10;4.15;;;14.30;99.90;;;;;;5078954;28;20185;-45
2022/07/01 03:52:04;;;;;;;11.35;4.30;;;15.10;99.90;;;;;;5079532;28;20080;-48
2022/07/01 03:54:30;;;;;;;6.82;4.00;;;14.10;99.90;;;;;;5077885;28;20035;-48
2022/07/01 03:56:57;;;;;;;10.45;4.03;;;14.60;99.90;;;;;;5076472;28;20032;-47
2022/07/01 03:59:23;;;;;;;7.03;3.85;;;15.50;99.90;;;;;;5076911;28;20040;-44
2022/07/01 04:01:49;;;;;;;8.52;4.03;;;15.70;99.90;;;;;;5076883;28;20524;-47
2022/07/01 04:04:15;;;;;;;9.90;4.40;;;14.30;99.90;;;;;;5076269;28;20048;-46
2022/07/01 04:06:42;;;;;;;8.55;3.90;;;14.80;99.90;;;;;;5076708;28;20051;-44
2022/07/01 04:09:07;;;;;;;8.98;3.80;;;14.20;99.90;;;;;;5075063;28;20050;-48
2022/07/01 04:11:37;;;;;;;7.10;3.97;;;15.40;99.90;;;;;;5077600;28;20396;-46
2022/07/01 04:14:02;;;;;;;9.90;4.20;;;14.80;99.90;;;;;;5076393;28;20181;-44
2022/07/01 04:16:28;;;;;;;10.23;4.30;;;14.50;99.90;;;;;;5076344;28;20040;-47
2022/07/01 04:18:54;;;;;;;9.85;4.13;;;15.50;99.90;;;;;;5076064;28;20062;-47
2022/07/01 04:24:05;;;;;;;7.18;4.35;;;14.30;99.90;;;;;;5076694;28;20059;-44
2022/07/01 04:26:31;;;;;;;7.15;4.18;;;14.20;99.90;;;;;;5076731;28;20048;-45
2022/07/01 04:28:57;;;;;;;8.00;5.05;;;14.20;99.90;;;;;;5075870;28;20044;-46
2022/07/01 04:31:22;;;;;;;8.70;4.75;;;14.20;99.90;;;;;;5076083;28;20040;-45
2022/07/01 04:33:49;;;;;;;9.15;4.82;;;15.40;99.90;;;;;;5074862;28;20105;-43
2022/07/01 04:36:14;;;;;;;7.45;4.47;;;14.30;99.90;;;;;;5077315;28;20147;-44
2022/07/01 04:38:42;;;;;;;10.15;5.03;;;14.40;99.90;;;;;;5077079;28;20857;-43
2022/07/01 04:43:54;;;;;;;8.27;5.13;;;14.40;99.90;;;;;;5075886;28;20048;-44
2022/07/01 04:46:20;;;;;;;9.93;5.78;;;15.00;99.90;;;;;;5076192;28;20043;-45
2022/07/01 04:48:45;;;;;;;11.63;5.88;;;14.60;99.90;;;;;;5074601;28;20043;-45
2022/07/01 04:51:11;;;;;;;8.10;6.03;;;14.20;99.90;;;;;;5077991;28;20127;-48
2022/07/01 04:53:37;;;;;;;11.45;5.93;;;14.50;99.90;;;;;;5073961;28;20052;-45
2022/07/01 04:56:02;;;;;;;9.05;6.15;;;14.00;99.90;;;;;;5075140;28;20127;-44
2022/07/01 04:58:28;;;;;;;10.45;6.10;;;14.20;99.90;;;;;;5074279;28;20781;-45
2022/07/01 05:00:56;;;;;;;13.85;7.43;;;15.20;99.90;;;;;;5076713;28;20047;-43
2022/07/01 05:03:21;;;;;;;11.70;7.65;;;14.20;99.90;;;;;;5076937;28;20043;-45
2022/07/01 05:05:47;;;;;;;15.15;8.93;;;14.20;99.90;;;;;;5076186;28;20047;-44
2022/07/01 05:08:12;;;;;;;13.57;9.63;;;14.10;99.90;;;;;;5075703;28;20063;-43
2022/07/01 05:10:38;;;;;;;14.18;10.05;;;16.50;99.90;;;;;;5077366;28;20339;-46
2022/07/01 05:13:04;;;;;;;15.35;10.60;;;15.30;99.90;;;;;;5074835;28;20496;-45
2022/07/01 05:15:30;;;;;;;16.98;10.75;;;14.10;99.90;;;;;;5076468;28;20611;-44
2022/07/01 05:23:26;;;;;;;20.60;13.02;;;14.50;99.90;;;;;;5074721;28;20477;-44
2022/07/01 05:25:54;;;;;;;20.17;13.98;;;14.20;99.90;;;;;;5074622;28;20844;-47
2022/07/01 05:28:20;;;;;;;23.42;14.60;;;14.30;99.90;;;;;;5074744;28;20654;-46
2022/07/01 05:30:45;;;;;;;21.88;15.55;;;14.50;99.90;;;;;;5075231;28;20111;-46
2022/07/01 05:33:15;;;;;;;21.73;14.73;;;14.50;99.90;;;;;;5075459;28;20699;-48
2022/07/01 05:35:40;;;;;;;19.42;15.48;;;14.50;99.90;;;;;;5074973;28;20071;-47
2022/07/01 05:38:06;;;;;;;27.88;16.98;;;14.60;99.90;;;;;;5075033;28;20119;-46
2022/07/01 05:40:35;;;;;;;22.70;15.95;;;16.10;99.90;;;;;;5076227;28;20080;-43
2022/07/01 05:43:01;;;;;;;21.60;15.68;;;16.70;99.90;;;;;;5075203;28;20036;-45
2022/07/01 05:45:26;;;;;;;25.20;16.52;;;14.70;99.90;;;;;;5075727;28;20089;-45
2022/07/01 05:47:54;;;;;;;28.27;18.52;;;14.70;99.90;;;;;;5075887;28;20397;-45
2022/07/01 05:50:20;;;;;;;26.00;17.98;;;16.70;99.90;;;;;;5076226;28;20048;-45
2022/07/01 05:52:46;;;;;;;26.27;18.25;;;14.70;99.90;;;;;;5075227;28;20105;-46
2022/07/01 05:55:12;;;;;;;24.48;17.83;;;14.90;99.90;;;;;;5074608;28;20032;-46
2022/07/01 05:57:37;;;;;;;27.67;19.38;;;14.70;99.90;;;;;;5075758;28;20067;-48
2022/07/01 06:00:04;;;;;;;30.02;20.20;;;15.50;99.90;;;;;;5075793;28;20082;-47
2022/07/01 06:02:29;;;;;;;26.45;19.35;;;14.80;99.90;;;;;;5075372;28;20043;-44
2022/07/01 06:04:55;;;;;;;27.02;20.27;;;14.70;99.90;;;;;;5075077;28;20032;-42
2022/07/01 06:07:21;;;;;;;29.55;21.40;;;14.70;99.90;;;;;;5076019;28;20040;-48
2022/07/01 06:09:47;;;;;;;33.53;21.67;;;15.00;99.90;;;;;;5076171;28;20048;-46
2022/07/01 06:12:12;;;;;;;30.77;21.85;;;15.00;99.90;;;;;;5075375;28;20044;-46
2022/07/01 06:14:38;;;;;;;31.15;21.23;;;17.10;99.90;;;;;;5075997;28;20400;-48
2022/07/01 06:17:06;;;;;;;26.33;20.55;;;15.90;99.90;;;;;;5075674;28;20431;-48
2022/07/01 06:19:31;;;;;;;27.05;21.13;;;15.10;99.90;;;;;;5075312;28;20625;-47
2022/07/01 06:21:57;;;;;;;28.40;21.83;;;15.20;99.90;;;;;;5074519;28;20060;-45
2022/07/01 06:24:24;;;;;;;26.77;20.38;;;15.20;99.90;;;;;;5074671;28;20040;-47
2022/07/01 06:26:50;;;;;;;26.17;21.75;;;15.20;99.90;;;;;;5074476;28;20167;-46
2022/07/01 06:29:16;;;;;;;28.45;20.48;;;15.20;99.90;;;;;;5074637;28;20574;-44
2022/07/01 06:31:41;;;;;;;30.67;21.98;;;15.50;99.90;;;;;;5074147;28;20058;-48
2022/07/01 06:34:07;;;;;;;29.17;21.23;;;15.60;99.90;;;;;;5074008;28;20219;-46
2022/07/01 06:36:33;;;;;;;30.38;22.50;;;16.50;99.90;;;;;;5073676;28;20036;-48
2022/07/01 06:38:58;;;;;;;27.23;21.55;;;16.40;99.90;;;;;;5073513;28;20564;-44
2022/07/01 06:41:27;;;;;;;26.73;21.20;;;16.20;99.90;;;;;;5075025;28;20039;-44
2022/07/01 06:43:54;;;;;;;28.25;21.30;;;15.80;99.90;;;;;;5074462;28;20052;-46
2022/07/01 06:46:20;;;;;;;30.13;22.08;;;15.90;99.90;;;;;;5074245;28;20047;-47
2022/07/01 06:48:46;;;;;;;26.35;21.42;;;17.10;99.90;;;;;;5073045;28;21164;-45
2022/07/01 06:51:11;;;;;;;29.30;21.92;;;15.70;99.90;;;;;;5069936;28;20627;-46
2022/07/01 06:53:38;;;;;;;27.02;21.50;;;15.70;99.90;;;;;;5073186;28;20348;-45
2022/07/01 06:56:04;;;;;;;24.75;20.65;;;16.30;99.90;;;;;;5072557;28;20496;-47
2022/07/01 06:58:31;;;;;;;26.10;20.02;;;16.00;99.90;;;;;;5073057;28;20036;-48
2022/07/01 07:00:58;;;;;;;25.92;21.33;;;15.80;99.90;;;;;;5074650;28;20039;-44
2022/07/01 07:03:23;;;;;;;25.85;19.95;;;18.10;99.90;;;;;;5075426;28;20044;-44
2022/07/01 07:05:49;;;;;;;27.75;21.75;;;16.00;99.90;;;;;;5074054;28;20412;-44
2022/07/01 07:08:15;;;;;;;27.75;22.23;;;16.50;99.90;;;;;;5074576;28;20123;-43
2022/07/01 07:10:41;;;;;;;28.65;21.77;;;16.90;99.90;;;;;;5076113;28;20120;-43
2022/07/01 07:13:07;;;;;;;32.92;21.95;;;15.90;99.90;;;;;;5073983;28;20044;-45
2022/07/01 07:15:32;;;;;;;25.70;21.25;;;16.80;99.90;;;;;;5074621;28;20302;-46
2022/07/01 07:17:58;;;;;;;26.55;19.88;;;15.60;99.90;;;;;;5074792;28;20036;-43
2022/07/01 07:20:26;;;;;;;26.45;21.13;;;17.30;99.90;;;;;;5075422;28;20173;-47
2022/07/01 07:22:53;;;;;;;25.13;20.27;;;15.80;99.90;;;;;;5072089;28;20052;-46
2022/07/01 07:25:18;;;;;;;23.00;19.55;;;18.00;99.90;;;;;;5075100;28;20036;-48
2022/07/01 07:27:46;;;;;;;27.75;20.23;;;16.30;99.90;;;;;;5074607;28;20039;-43
2022/07/01 07:30:16;;;;;;;24.23;19.17;;;15.90;99.90;;;;;;5075110;28;20066;-46
2022/07/01 07:32:41;;;;;;;22.58;19.25;;;16.20;99.90;;;;;;5074408;28;20055;-47
2022/07/01 07:35:08;;;;;;;24.27;18.92;;;16.90;99.90;;;;;;5074221;28;20036;-46
2022/07/01 07:37:34;;;;;;;26.10;20.20;;;16.00;99.90;;;;;;5073335;28;20032;-48
2022/07/01 07:40:01;;;;;;;27.08;20.02;;;17.30;99.90;;;;;;5074245;28;20047;-46
2022/07/01 07:42:27;;;;;;;22.15;18.50;;;16.50;99.90;;;;;;5074413;28;20089;-45
2022/07/01 07:44:55;;;;;;;25.63;19.17;;;16.20;99.90;;;;;;5072778;28;20128;-44
2022/07/01 07:47:21;;;;;;;26.20;18.10;;;17.40;99.90;;;;;;5072301;28;20032;-47
2022/07/01 07:49:47;;;;;;;24.48;19.33;;;16.50;99.90;;;;;;5072485;28;20075;-47
2022/07/01 07:52:13;;;;;;;21.25;18.40;;;17.00;99.90;;;;;;5074077;28;20074;-48
2022/07/01 07:54:39;;;;;;;22.58;17.65;;;17.50;99.90;;;;;;5073776;28;20034;-48
2022/07/01 07:57:05;;;;;;;22.42;17.65;;;18.00;99.90;;;;;;5072327;28;20557;-46
2022/07/01 07:59:31;;;;;;;18.30;15.38;;;18.80;99.90;;;;;;5071993;28;20044;-48
2022/07/01 08:01:56;;;;;;;20.55;14.07;;;18.70;99.90;;;;;;5071418;28;20040;-47
2022/07/01 08:04:22;;;;;;;19.63;13.40;;;19.30;99.90;;;;;;5072438;28;20035;-47
2022/07/01 08:06:49;;;;;;;15.77;12.18;;;20.00;99.90;;;;;;5073807;28;20063;-47
2022/07/01 08:09:15;;;;;;;17.27;13.18;;;21.60;99.00;;;;;;5072971;28;20160;-48
2022/07/01 08:11:41;;;;;;;19.13;12.20;;;21.40;96.50;;;;;;5073015;28;20032;-46
2022/07/01 08:14:10;;;;;;;14.77;10.75;;;21.50;83.30;;;;;;5072099;28;20033;-44
2022/07/01 08:16:38;;;;;;;15.88;11.15;;;22.50;80.80;;;;;;5073353;28;20044;-47
2022/07/01 08:19:03;;;;;;;11.55;8.50;;;21.50;72.00;;;;;;5072879;28;20036;-48
2022/07/01 08:21:30;;;;;;;13.55;9.23;;;21.70;75.80;;;;;;5072197;28;20101;-49
2022/07/01 08:23:55;;;;;;;13.63;8.85;;;20.70;87.20;;;;;;5073201;28;20082;-46
2022/07/01 08:26:21;;;;;;;14.80;9.48;;;21.00;87.30;;;;;;5073126;28;20075;-49
2022/07/01 08:28:47;;;;;;;13.18;8.93;;;21.60;84.40;;;;;;5073012;28;20040;-47
2022/07/01 08:31:15;;;;;;;12.50;8.85;;;22.00;69.20;;;;;;5073960;28;20065;-49
2022/07/01 08:33:41;;;;;;;13.70;8.90;;;21.70;44.30;;;;;;5073441;28;20530;-49
2022/07/01 08:36:08;;;;;;;12.75;7.18;;;21.80;67.90;;;;;;5077835;28;20036;-48
2022/07/01 08:38:35;;;;;;;14.90;8.35;;;21.80;58.80;;;;;;5076630;28;20519;-48
2022/07/01 08:41:01;;;;;;;14.50;8.10;;;22.30;48.00;;;;;;5077855;28;20154;-49
2022/07/01 08:43:28;;;;;;;10.95;7.53;;;21.60;57.70;;;;;;5077358;28;20070;-48
2022/07/01 08:45:57;;;;;;;10.52;6.95;;;21.40;57.70;;;;;;5077630;28;20044;-48
2022/07/01 08:48:23;;;;;;;12.60;7.68;;;20.90;54.60;;;;;;5076802;28;20065;-49
2022/07/01 08:50:49;;;;;;;14.40;7.25;;;23.20;73.70;;;;;;5077065;28;20050;-44
2022/07/01 08:53:14;;;;;;;10.57;6.75;;;21.20;63.60;;;;;;5077949;28;20535;-50
2022/07/01 08:58:27;;;;;;;11.07;6.47;;;21.30;62.70;;;;;;5077688;28;20093;-46
2022/07/01 09:01:11;;;;;;;14.15;7.00;;;21.00;60.40;;;;;;5077909;28;20475;-49
2022/07/01 09:03:36;;;;;;;14.02;6.90;;;22.70;66.20;;;;;;5076532;28;20654;-47
2022/07/01 09:06:02;;;;;;;10.98;5.32;;;20.40;60.60;;;;;;5076992;28;20123;-48
2022/07/01 09:08:28;;;;;;;8.95;4.90;;;20.40;47.90;;;;;;5077469;28;20096;-46
2022/07/01 09:10:55;;;;;;;7.03;3.72;;;23.00;57.90;;;;;;5075419;28;20036;-47
2022/07/01 09:13:21;;;;;;;11.40;4.40;;;21.00;52.70;;;;;;5076114;28;20039;-47
2022/07/01 09:15:46;;;;;;;9.10;4.50;;;21.30;36.00;;;;;;5075489;28;20044;-45
2022/07/01 09:18:15;;;;;;;9.20;4.60;;;21.80;38.20;;;;;;5076921;28;20207;-44
2022/07/01 09:20:48;;;;;;;10.90;3.63;;;20.80;33.30;;;;;;5076102;28;20043;-46
2022/07/01 09:23:18;;;;;;;10.40;3.60;;;20.80;1.00;;;;;;5074378;28;20073;-44
2022/07/01 09:25:47;;;;;;;11.90;4.87;;;23.20;1.00;;;;;;5075861;28;20234;-45
2022/07/01 09:28:21;;;;;;;10.43;4.00;;;21.50;99.90;;;;;;5075122;28;20052;-47
2022/07/01 09:30:52;;;;;;;9.00;3.90;;;20.70;99.90;;;;;;5076165;28;20443;-46
2022/07/01 09:33:24;;;;;;;11.70;3.42;;;20.30;99.90;;;;;;5074396;28;20104;-47
2022/07/01 09:35:50;;;;;;;9.07;3.45;;;20.40;99.90;;;;;;5074875;28;20044;-48
2022/07/01 09:38:18;;;;;;;8.75;3.38;;;20.30;99.90;;;;;;5074088;28;20040;-49
2022/07/01 09:40:57;;;;;;;7.88;3.08;;;20.40;99.90;;;;;;5076699;28;20040;-48
2022/07/01 09:43:28;;;;;;;7.05;2.72;;;20.30;99.90;;;;;;5074594;28;20067;-47
2022/07/01 09:46:14;;;;;;;9.68;3.13;;;20.70;99.90;;;;;;5075596;28;20527;-49
2022/07/01 09:48:40;;;;;;;8.07;2.45;;;20.70;99.90;;;;;;5012714;28;20115;-48
2022/07/01 09:51:08;;;;;;;8.15;3.10;;;21.10;99.90;;;;;;5010757;28;20064;-44
2022/07/01 09:53:34;;;;;;;4.90;2.40;;;20.90;99.90;;;;;;5011747;28;20049;-47
2022/07/01 09:56:00;;;;;;;9.40;2.40;;;20.70;99.90;;;;;;5012450;28;20068;-47
2022/07/01 09:58:26;;;;;;;10.00;2.28;;;21.60;99.90;;;;;;5013293;28;21850;-44
2022/07/01 10:00:53;;;;;;;7.65;2.33;;;20.60;99.90;;;;;;4996720;28;20088;-44
2022/07/01 10:03:20;;;;;;;10.13;2.60;;;20.60;99.90;;;;;;5012439;28;20049;-47
2022/07/01 10:05:50;;;;;;;8.73;2.35;;;20.80;99.90;;;;;;4997213;28;20053;-44
2022/07/01 10:08:38;;;;;;;10.52;2.40;;;21.10;99.90;;;;;;5012911;28;20124;-45
2022/07/01 10:11:10;;;;;;;7.93;2.33;;;21.00;70.20;;;;;;4992334;28;20384;-45
2022/07/01 10:13:36;;;;;;;7.93;2.97;;;21.10;99.90;;;;;;4992723;28;20478;-44
2022/07/01 10:16:03;;;;;;;8.95;2.95;;;21.40;99.90;;;;;;4976144;28;20054;-43
2022/07/01 10:18:30;;;;;;;10.30;3.40;;;20.80;82.90;;;;;;4993341;28;20060;-46
2022/07/01 10:20:57;;;;;;;7.05;2.70;;;20.40;99.90;;;;;;4993064;28;20161;-46
2022/07/01 10:23:41;;;;;;;6.75;2.55;;;21.20;99.90;;;;;;4990718;28;20065;-48
2022/07/01 10:26:13;;;;;;;8.55;3.70;;;20.50;99.90;;;;;;5029500;28;20084;-47
2022/07/01 10:28:42;;;;;;;12.90;4.05;;;20.90;99.90;;;;;;5050912;28;20082;-43
2022/07/01 10:31:15;;;;;;;7.72;3.30;;;21.80;99.90;;;;;;5050321;28;20116;-56
2022/07/01 10:33:48;;;;;;;8.57;3.22;;;20.70;99.90;;;;;;5050710;28;20040;-54
2022/07/01 10:36:22;;;;;;;9.48;4.18;;;20.10;99.90;;;;;;5049202;28;20141;-54
2022/07/01 10:39:03;;;;;;;9.35;2.90;;;21.30;99.90;;;;;;5051627;28;20036;-56
2022/07/01 10:41:53;;;;;;;8.13;1.80;;;19.20;99.90;;;;;;5051089;28;20578;-53
2022/07/01 10:44:20;;;;;;;5.88;1.30;;;19.00;99.90;;;;;;5050457;28;20384;-54
2022/07/01 10:46:47;;;;;;;3.63;1.25;;;18.70;99.90;;;;;;5051094;28;20163;-56
2022/07/01 10:49:13;;;;;;;8.60;1.35;;;19.10;1.00;;;;;;5072596;28;20131;-50
2022/07/01 10:51:53;;;;;;;4.68;1.45;;;19.40;29.30;;;;;;5074391;28;20055;-48
2022/07/01 10:54:38;;;;;;;5.85;1.50;;;17.60;57.50;;;;;;5073355;28;20040;-47
2022/07/01 10:57:37;;;;;;;10.15;1.30;;;17.60;80.30;;;;;;5073568;28;20072;-46
2022/07/01 11:00:03;;;;;;;5.65;1.38;;;17.30;92.00;;;;;;5011406;28;20144;-48
2022/07/01 11:02:31;;;;;;;6.20;1.30;;;17.00;92.10;;;;;;5010044;28;20746;-48
2022/07/01 11:05:06;;;;;;;3.63;1.02;;;17.60;95.80;;;;;;5011358;28;20041;-50
2022/07/01 11:07:35;;;;;;;3.40;1.20;;;17.10;98.70;;;;;;4992947;28;20211;-44
2022/07/01 11:10:03;;;;;;;4.38;1.13;;;17.00;98.80;;;;;;4991371;28;20076;-51
2022/07/01 11:12:30;;;;;;;5.07;1.33;;;18.20;96.40;;;;;;5011939;28;20042;-48
2022/07/01 11:14:58;;;;;;;2.38;0.85;;;16.70;93.50;;;;;;5011645;28;20581;-47
2022/07/01 11:17:25;;;;;;;7.20;2.05;;;17.00;94.40;;;;;;5012263;28;20167;-48
2022/07/01 11:19:54;;;;;;;6.72;1.20;;;17.30;96.70;;;;;;5010353;28;20225;-48
2022/07/01 11:22:21;;;;;;;4.97;1.10;;;17.30;97.20;;;;;;5011641;28;20057;-47
2022/07/01 11:24:52;;;;;;;9.15;1.20;;;18.10;99.90;;;;;;5012147;28;21561;-48
2022/07/01 11:27:18;;;;;;;4.60;1.20;;;18.40;98.90;;;;;;5012648;28;20041;-47
2022/07/01 11:29:43;;;;;;;5.57;1.27;;;18.10;90.20;;;;;;5012227;28;20410;-49
2022/07/01 11:32:09;;;;;;;7.50;1.42;;;19.20;80.90;;;;;;4993970;28;20041;-50
2022/07/01 11:34:36;;;;;;;6.22;1.80;;;21.10;85.90;;;;;;4995055;28;20136;-50
2022/07/01 11:40:22;;;;;;;4.10;1.17;;;20.00;26.60;;;;;;5072348;28;20059;-50
2022/07/01 11:42:47;;;;;;;5.82;1.38;;;20.30;1.00;;;;;;5070101;28;20148;-51
2022/07/01 11:45:24;;;;;;;7.00;1.40;;;22.60;1.00;;;;;;5072496;28;20131;-49
2022/07/01 11:47:50;;;;;;;5.78;1.35;;;23.00;1.00;;;;;;5072335;28;20032;-48
2022/07/01 11:50:15;;;;;;;8.00;1.50;;;22.40;1.00;;;;;;5071900;28;20054;-49
2022/07/01 11:52:41;;;;;;;6.45;1.48;;;20.70;99.90;;;;;;5073442;28;20052;-50
2022/07/01 11:55:08;;;;;;;7.38;1.30;;;22.20;99.90;;;;;;5072775;28;20032;-51
2022/07/01 11:57:34;;;;;;;6.85;1.08;;;20.90;99.90;;;;;;5072866;28;20044;-50
2022/07/01 12:00:09;;;;;;;10.45;1.52;;;21.20;99.90;;;;;;5071996;28;20253;-51
2022/07/01 12:02:35;;;;;;;5.07;1.63;;;21.10;99.90;;;;;;5072663;28;20051;-52
2022/07/01 12:05:02;;;;;;;6.90;1.35;;;21.10;99.90;;;;;;5073062;28;20037;-52
2022/07/01 12:07:28;;;;;;;4.32;1.10;;;21.10;59.60;;;;;;5072433;28;20048;-54
2022/07/01 12:09:53;;;;;;;4.95;1.38;;;21.40;99.90;;;;;;5076948;28;20139;-50
2022/07/01 12:12:25;;;;;;;4.63;1.75;;;21.30;99.90;;;;;;5076362;28;20587;-53
2022/07/01 12:14:55;;;;;;;5.20;1.33;;;21.00;26.10;;;;;;5076877;28;20401;-52
2022/07/01 12:17:22;;;;;;;6.10;1.48;;;21.40;99.90;;;;;;5076125;28;20047;-52
2022/07/01 12:19:49;;;;;;;7.75;1.48;;;21.60;99.90;;;;;;5075094;28;20044;-52
2022/07/01 12:22:20;;;;;;;5.30;1.60;;;21.30;99.90;;;;;;5076511;28;20176;-53
2022/07/01 12:24:47;;;;;;;3.65;0.88;;;21.30;1.00;;;;;;5076013;28;20036;-50
2022/07/01 12:27:14;;;;;;;6.95;1.10;;;22.50;99.90;;;;;;5075446;28;20575;-52
2022/07/01 12:29:42;;;;;;;8.07;1.02;;;20.60;1.00;;;;;;5076583;28;20203;-54
2022/07/01 12:32:11;;;;;;;8.80;2.30;;;20.30;99.90;;;;;;5077962;28;20040;-45
2022/07/01 12:34:48;;;;;;;7.80;1.10;;;20.50;1.00;;;;;;5078243;28;20032;-44
2022/07/01 12:37:35;;;;;;;6.68;0.95;;;20.00;99.90;;;;;;5077471;28;20085;-48
2022/07/01 12:40:04;;;;;;;4.00;0.77;;;20.00;1.00;;;;;;5077364;28;20040;-47
2022/07/01 12:42:40;;;;;;;5.63;1.23;;;20.20;99.90;;;;;;5078628;28;20119;-48
2022/07/01 12:45:10;;;;;;;5.35;1.00;;;20.70;99.90;;;;;;5093458;28;20036;-42
2022/07/01 12:47:47;;;;;;;5.88;1.05;;;20.20;1.00;;;;;;5077292;28;20043;-43
2022/07/01 12:50:22;;;;;;;7.40;1.30;;;20.20;99.90;;;;;;5076057;28;20063;-48
2022/07/01 12:52:57;;;;;;;4.65;1.00;;;19.90;1.00;;;;;;5073397;28;20520;-43
2022/07/01 12:55:27;;;;;;;4.72;0.80;;;19.80;99.90;;;;;;5074122;28;20131;-43
2022/07/01 12:57:54;;;;;;;5.80;0.90;;;21.70;99.90;;;;;;5076873;28;20048;-45